Pflugerville, Texas
Current Conditions -  °F | °C
As of 11:35 AM on Wednesday 26 Nov 2014 (Local Time) from KEDC Reporting Station
Clear Clear  
Wind Chill: 68°   Ceiling: Unl
Heat Index: 68°   Visibility: 10mi
Dew Point: 34°   Wind: 14mph
Humidity: 28%   Direction: 220°SW
Pressure: 30.2"   Gusts: NA
Location:  30.44°N, 97.62°W
Report Text: KEDC 261735Z AUTO 22012KT 10SM CLR 20/01 A3020 RMK AO2
Loading
Personal Weather Stations






























Interactive Weather Map New forecast layout! Learn more

10-Day Weather Forecast

Advertisements
Track Severe Weather on mobile